sensor_id;sensor_type;location;lat;lon;timestamp;P1;durP1;ratioP1;P2;durP2;ratioP2
6953;SDS011;3516;47.980;8.808;2023-06-14T03:59:23;1.65;;;1.58;;
6953;SDS011;3516;47.980;8.808;2023-06-14T04:01:50;2.45;;;2.30;;
6953;SDS011;3516;47.980;8.808;2023-06-14T04:04:18;1.95;;;1.85;;
6953;SDS011;3516;47.980;8.808;2023-06-14T04:06:46;1.75;;;1.65;;
6953;SDS011;3516;47.980;8.808;2023-06-14T04:09:15;2.42;;;2.22;;
6953;SDS011;3516;47.980;8.808;2023-06-14T04:11:44;1.70;;;1.70;;
6953;SDS011;3516;47.980;8.808;2023-06-14T04:14:11;1.85;;;1.70;;
6953;SDS011;3516;47.980;8.808;2023-06-14T04:16:39;2.08;;;1.98;;
6953;SDS011;3516;47.980;8.808;2023-06-14T04:19:06;2.05;;;1.95;;
6953;SDS011;3516;47.980;8.808;2023-06-14T04:21:33;5.05;;;2.60;;
6953;SDS011;3516;47.980;8.808;2023-06-14T04:24:00;2.97;;;2.28;;
6953;SDS011;3516;47.980;8.808;2023-06-14T04:26:27;1.60;;;1.60;;
6953;SDS011;3516;47.980;8.808;2023-06-14T04:28:55;2.67;;;1.88;;
6953;SDS011;3516;47.980;8.808;2023-06-14T04:31:26;1.83;;;1.70;;
6953;SDS011;3516;47.980;8.808;2023-06-14T04:33:55;2.05;;;1.98;;
6953;SDS011;3516;47.980;8.808;2023-06-14T04:36:24;1.80;;;1.70;;
6953;SDS011;3516;47.980;8.808;2023-06-14T04:38:53;2.90;;;2.00;;
6953;SDS011;3516;47.980;8.808;2023-06-14T04:41:20;1.85;;;1.75;;
6953;SDS011;3516;47.980;8.808;2023-06-14T04:43:47;2.25;;;2.15;;
6953;SDS011;3516;47.980;8.808;2023-06-14T04:46:14;2.10;;;2.00;;
6953;SDS011;3516;47.980;8.808;2023-06-14T04:48:42;3.13;;;1.90;;
6953;SDS011;3516;47.980;8.808;2023-06-14T04:51:12;1.90;;;1.80;;
6953;SDS011;3516;47.980;8.808;2023-06-14T04:53:40;1.90;;;1.80;;
6953;SDS011;3516;47.980;8.808;2023-06-14T04:56:09;2.10;;;2.00;;
6953;SDS011;3516;47.980;8.808;2023-06-14T04:58:36;2.00;;;1.90;;
6953;SDS011;3516;47.980;8.808;2023-06-14T05:01:03;2.28;;;2.10;;
6953;SDS011;3516;47.980;8.808;2023-06-14T05:03:30;2.13;;;2.03;;
6953;SDS011;3516;47.980;8.808;2023-06-14T05:05:59;2.47;;;2.28;;
6953;SDS011;3516;47.980;8.808;2023-06-14T05:08:27;2.50;;;2.40;;
6953;SDS011;3516;47.980;8.808;2023-06-14T10:40:31;3.03;;;1.92;;
6953;SDS011;3516;47.980;8.808;2023-06-14T10:42:58;2.30;;;2.20;;
6953;SDS011;3516;47.980;8.808;2023-06-14T10:45:25;2.85;;;2.65;;
6953;SDS011;3516;47.980;8.808;2023-06-14T10:47:52;2.53;;;2.35;;
6953;SDS011;3516;47.980;8.808;2023-06-14T10:50:24;2.95;;;2.10;;
6953;SDS011;3516;47.980;8.808;2023-06-14T10:52:54;2.38;;;2.17;;
6953;SDS011;3516;47.980;8.808;2023-06-14T10:55:22;2.25;;;2.15;;
6953;SDS011;3516;47.980;8.808;2023-06-14T10:57:51;2.38;;;2.17;;
6953;SDS011;3516;47.980;8.808;2023-06-14T11:00:21;2.70;;;2.55;;
6953;SDS011;3516;47.980;8.808;2023-06-14T11:02:57;2.70;;;2.50;;
6953;SDS011;3516;47.980;8.808;2023-06-14T11:05:32;2.45;;;2.35;;
6953;SDS011;3516;47.980;8.808;2023-06-14T11:10:53;1.85;;;1.85;;
6953;SDS011;3516;47.980;8.808;2023-06-14T11:13:22;2.08;;;1.98;;
6953;SDS011;3516;47.980;8.808;2023-06-14T11:15:51;1.77;;;1.67;;
6953;SDS011;3516;47.980;8.808;2023-06-14T11:18:21;1.70;;;1.55;;
6953;SDS011;3516;47.980;8.808;2023-06-14T11:20:50;1.83;;;1.73;;
6953;SDS011;3516;47.980;8.808;2023-06-14T11:23:17;1.92;;;1.83;;
6953;SDS011;3516;47.980;8.808;2023-06-14T11:25:49;2.20;;;2.10;;
6953;SDS011;3516;47.980;8.808;2023-06-14T11:28:16;2.10;;;2.00;;
6953;SDS011;3516;47.980;8.808;2023-06-14T11:30:45;2.80;;;2.60;;
6953;SDS011;3516;47.980;8.808;2023-06-14T11:33:16;1.88;;;1.80;;
6953;SDS011;3516;47.980;8.808;2023-06-14T11:35:43;2.10;;;2.00;;
6953;SDS011;3516;47.980;8.808;2023-06-14T11:38:11;2.50;;;2.20;;
6953;SDS011;3516;47.980;8.808;2023-06-14T11:40:38;2.75;;;2.53;;
6953;SDS011;3516;47.980;8.808;2023-06-14T11:43:05;2.10;;;2.00;;
6953;SDS011;3516;47.980;8.808;2023-06-14T11:45:33;2.25;;;2.15;;
6953;SDS011;3516;47.980;8.808;2023-06-14T11:48:01;6.32;;;2.15;;
6953;SDS011;3516;47.980;8.808;2023-06-14T11:50:28;5.07;;;2.85;;
6953;SDS011;3516;47.980;8.808;2023-06-14T11:52:56;2.60;;;2.50;;
6953;SDS011;3516;47.980;8.808;2023-06-14T11:55:24;2.83;;;2.63;;
6953;SDS011;3516;47.980;8.808;2023-06-14T11:57:53;2.92;;;2.47;;
6953;SDS011;3516;47.980;8.808;2023-06-14T12:00:24;3.00;;;2.80;;
6953;SDS011;3516;47.980;8.808;2023-06-14T12:02:52;3.30;;;2.50;;
6953;SDS011;3516;47.980;8.808;2023-06-14T12:05:22;2.40;;;2.30;;
6953;SDS011;3516;47.980;8.808;2023-06-14T12:07:49;2.25;;;2.15;;
6953;SDS011;3516;47.980;8.808;2023-06-14T12:10:18;2.35;;;2.25;;
6953;SDS011;3516;47.980;8.808;2023-06-14T12:12:45;2.33;;;2.20;;
6953;SDS011;3516;47.980;8.808;2023-06-14T12:15:12;2.80;;;2.30;;
6953;SDS011;3516;47.980;8.808;2023-06-14T12:17:41;4.07;;;2.80;;
6953;SDS011;3516;47.980;8.808;2023-06-14T12:20:09;3.28;;;2.45;;
6953;SDS011;3516;47.980;8.808;2023-06-14T12:22:40;2.80;;;2.50;;
6953;SDS011;3516;47.980;8.808;2023-06-14T12:25:22;3.53;;;2.72;;
6953;SDS011;3516;47.980;8.808;2023-06-14T12:27:52;2.80;;;2.60;;
6953;SDS011;3516;47.980;8.808;2023-06-14T12:30:19;3.47;;;2.80;;
6953;SDS011;3516;47.980;8.808;2023-06-14T12:32:46;3.33;;;3.10;;
6953;SDS011;3516;47.980;8.808;2023-06-14T12:35:13;3.00;;;2.67;;
6953;SDS011;3516;47.980;8.808;2023-06-14T12:37:41;3.28;;;2.90;;
6953;SDS011;3516;47.980;8.808;2023-06-14T12:40:09;2.97;;;2.78;;
6953;SDS011;3516;47.980;8.808;2023-06-14T12:42:36;3.00;;;2.80;;
6953;SDS011;3516;47.980;8.808;2023-06-14T12:45:03;2.50;;;2.40;;
6953;SDS011;3516;47.980;8.808;2023-06-14T12:47:31;3.22;;;3.03;;
6953;SDS011;3516;47.980;8.808;2023-06-14T12:49:58;2.78;;;2.50;;
6953;SDS011;3516;47.980;8.808;2023-06-14T12:52:25;2.92;;;2.72;;
6953;SDS011;3516;47.980;8.808;2023-06-14T12:54:53;2.88;;;2.67;;
6953;SDS011;3516;47.980;8.808;2023-06-14T12:57:20;3.00;;;2.80;;
6953;SDS011;3516;47.980;8.808;2023-06-14T12:59:47;2.80;;;2.60;;
6953;SDS011;3516;47.980;8.808;2023-06-14T13:02:15;3.10;;;2.90;;
6953;SDS011;3516;47.980;8.808;2023-06-14T13:04:42;3.60;;;3.30;;
6953;SDS011;3516;47.980;8.808;2023-06-14T13:07:09;3.25;;;3.05;;
6953;SDS011;3516;47.980;8.808;2023-06-14T13:09:36;2.90;;;2.80;;
6953;SDS011;3516;47.980;8.808;2023-06-14T13:12:05;5.88;;;3.25;;
6953;SDS011;3516;47.980;8.808;2023-06-14T13:14:33;2.63;;;2.53;;
6953;SDS011;3516;47.980;8.808;2023-06-14T13:17:00;2.63;;;2.42;;
6953;SDS011;3516;47.980;8.808;2023-06-14T13:19:27;2.75;;;2.55;;
6953;SDS011;3516;47.980;8.808;2023-06-14T13:21:54;3.72;;;3.20;;
6953;SDS011;3516;47.980;8.808;2023-06-14T13:24:21;3.72;;;2.70;;
6953;SDS011;3516;47.980;8.808;2023-06-14T13:26:48;2.75;;;2.63;;
6953;SDS011;3516;47.980;8.808;2023-06-14T13:29:16;3.20;;;3.00;;
6953;SDS011;3516;47.980;8.808;2023-06-14T13:31:43;2.88;;;2.58;;
6953;SDS011;3516;47.980;8.808;2023-06-14T13:34:12;4.90;;;2.90;;
6953;SDS011;3516;47.980;8.808;2023-06-14T13:36:39;4.07;;;2.90;;
6953;SDS011;3516;47.980;8.808;2023-06-14T13:39:06;3.13;;;2.85;;
6953;SDS011;3516;47.980;8.808;2023-06-14T13:41:33;2.83;;;2.40;;
6953;SDS011;3516;47.980;8.808;2023-06-14T13:44:01;3.13;;;2.92;;
6953;SDS011;3516;47.980;8.808;2023-06-14T13:46:30;3.20;;;3.00;;
6953;SDS011;3516;47.980;8.808;2023-06-14T13:48:57;3.25;;;2.97;;
6953;SDS011;3516;47.980;8.808;2023-06-14T13:51:26;3.67;;;2.90;;
6953;SDS011;3516;47.980;8.808;2023-06-14T13:53:54;3.20;;;2.90;;
6953;SDS011;3516;47.980;8.808;2023-06-14T13:56:21;4.65;;;3.00;;
6953;SDS011;3516;47.980;8.808;2023-06-14T13:58:49;3.47;;;3.00;;
6953;SDS011;3516;47.980;8.808;2023-06-14T14:01:16;3.60;;;3.30;;
6953;SDS011;3516;47.980;8.808;2023-06-14T14:03:46;3.45;;;3.13;;
6953;SDS011;3516;47.980;8.808;2023-06-14T14:06:13;3.20;;;2.90;;
6953;SDS011;3516;47.980;8.808;2023-06-14T14:08:40;3.67;;;3.00;;
6953;SDS011;3516;47.980;8.808;2023-06-14T14:11:07;4.45;;;3.13;;
6953;SDS011;3516;47.980;8.808;2023-06-14T14:13:35;2.83;;;2.72;;
6953;SDS011;3516;47.980;8.808;2023-06-14T14:16:03;2.70;;;2.60;;
6953;SDS011;3516;47.980;8.808;2023-06-14T14:18:30;2.72;;;2.63;;
6953;SDS011;3516;47.980;8.808;2023-06-14T14:20:59;2.80;;;2.60;;
6953;SDS011;3516;47.980;8.808;2023-06-14T14:23:27;3.95;;;2.92;;
6953;SDS011;3516;47.980;8.808;2023-06-14T14:25:54;3.85;;;3.15;;
6953;SDS011;3516;47.980;8.808;2023-06-14T14:28:21;2.95;;;2.60;;
6953;SDS011;3516;47.980;8.808;2023-06-14T14:30:48;3.25;;;2.95;;
6953;SDS011;3516;47.980;8.808;2023-06-14T14:33:16;2.97;;;2.70;;
6953;SDS011;3516;47.980;8.808;2023-06-14T14:35:43;5.38;;;3.05;;
6953;SDS011;3516;47.980;8.808;2023-06-14T14:38:12;4.53;;;3.22;;
6953;SDS011;3516;47.980;8.808;2023-06-14T14:40:39;3.00;;;2.80;;
6953;SDS011;3516;47.980;8.808;2023-06-14T14:43:06;2.85;;;2.75;;
6953;SDS011;3516;47.980;8.808;2023-06-14T14:45:33;3.13;;;2.85;;
6953;SDS011;3516;47.980;8.808;2023-06-14T14:48:00;3.33;;;2.83;;
6953;SDS011;3516;47.980;8.808;2023-06-14T14:50:28;3.45;;;3.25;;
6953;SDS011;3516;47.980;8.808;2023-06-14T14:52:55;6.88;;;3.55;;
6953;SDS011;3516;47.980;8.808;2023-06-14T14:55:24;3.50;;;3.03;;
6953;SDS011;3516;47.980;8.808;2023-06-14T14:57:51;4.93;;;3.40;;
6953;SDS011;3516;47.980;8.808;2023-06-14T15:00:18;5.05;;;2.90;;
6953;SDS011;3516;47.980;8.808;2023-06-14T15:02:45;3.35;;;3.05;;
6953;SDS011;3516;47.980;8.808;2023-06-14T15:05:12;2.80;;;2.70;;
6953;SDS011;3516;47.980;8.808;2023-06-14T15:07:39;3.72;;;2.70;;
6953;SDS011;3516;47.980;8.808;2023-06-14T15:10:06;4.75;;;3.47;;
6953;SDS011;3516;47.980;8.808;2023-06-14T15:12:35;3.20;;;2.90;;
6953;SDS011;3516;47.980;8.808;2023-06-14T15:15:03;3.10;;;2.90;;
6953;SDS011;3516;47.980;8.808;2023-06-14T15:17:30;3.65;;;3.00;;
6953;SDS011;3516;47.980;8.808;2023-06-14T15:19:57;3.22;;;3.03;;
6953;SDS011;3516;47.980;8.808;2023-06-14T15:22:24;3.30;;;3.08;;
6953;SDS011;3516;47.980;8.808;2023-06-14T15:24:51;3.53;;;3.10;;
6953;SDS011;3516;47.980;8.808;2023-06-14T15:27:18;3.28;;;2.97;;
6953;SDS011;3516;47.980;8.808;2023-06-14T15:29:46;3.25;;;3.05;;
6953;SDS011;3516;47.980;8.808;2023-06-14T15:32:14;3.45;;;3.00;;
6953;SDS011;3516;47.980;8.808;2023-06-14T15:34:41;3.45;;;3.15;;
6953;SDS011;3516;47.980;8.808;2023-06-14T15:37:08;2.55;;;2.42;;
6953;SDS011;3516;47.980;8.808;2023-06-14T15:39:35;4.15;;;3.30;;
6953;SDS011;3516;47.980;8.808;2023-06-14T15:42:02;4.95;;;2.90;;
6953;SDS011;3516;47.980;8.808;2023-06-14T15:44:30;3.22;;;3.03;;
6953;SDS011;3516;47.980;8.808;2023-06-14T15:46:59;6.18;;;3.05;;
6953;SDS011;3516;47.980;8.808;2023-06-14T15:49:26;3.47;;;2.53;;
6953;SDS011;3516;47.980;8.808;2023-06-14T15:51:53;4.22;;;2.67;;
6953;SDS011;3516;47.980;8.808;2023-06-14T15:54:20;5.15;;;2.70;;
6953;SDS011;3516;47.980;8.808;2023-06-14T15:56:46;2.53;;;2.40;;
6953;SDS011;3516;47.980;8.808;2023-06-14T15:59:13;2.72;;;2.63;;
6953;SDS011;3516;47.980;8.808;2023-06-14T16:01:40;2.90;;;2.60;;
6953;SDS011;3516;47.980;8.808;2023-06-14T16:04:08;3.83;;;2.38;;
6953;SDS011;3516;47.980;8.808;2023-06-14T16:06:34;2.42;;;2.22;;
6953;SDS011;3516;47.980;8.808;2023-06-14T16:09:02;2.95;;;2.75;;
6953;SDS011;3516;47.980;8.808;2023-06-14T16:11:29;3.10;;;2.90;;
6953;SDS011;3516;47.980;8.808;2023-06-14T16:13:55;2.60;;;2.40;;
6953;SDS011;3516;47.980;8.808;2023-06-14T16:16:22;3.00;;;2.80;;
6953;SDS011;3516;47.980;8.808;2023-06-14T16:18:49;3.33;;;2.47;;
6953;SDS011;3516;47.980;8.808;2023-06-14T16:21:17;5.18;;;2.70;;
6953;SDS011;3516;47.980;8.808;2023-06-14T16:23:43;2.72;;;2.63;;
6953;SDS011;3516;47.980;8.808;2023-06-14T16:26:11;2.58;;;2.47;;
6953;SDS011;3516;47.980;8.808;2023-06-14T16:28:38;2.30;;;2.20;;
6953;SDS011;3516;47.980;8.808;2023-06-14T16:31:07;3.53;;;2.60;;
6953;SDS011;3516;47.980;8.808;2023-06-14T16:33:33;2.50;;;2.40;;
6953;SDS011;3516;47.980;8.808;2023-06-14T16:36:00;2.45;;;2.25;;
6953;SDS011;3516;47.980;8.808;2023-06-14T16:38:28;3.70;;;2.90;;
6953;SDS011;3516;47.980;8.808;2023-06-14T16:40:55;3.67;;;3.15;;
6953;SDS011;3516;47.980;8.808;2023-06-14T16:43:21;3.13;;;2.92;;
6953;SDS011;3516;47.980;8.808;2023-06-14T16:45:48;2.40;;;2.30;;
6953;SDS011;3516;47.980;8.808;2023-06-14T16:48:15;2.83;;;2.60;;
6953;SDS011;3516;47.980;8.808;2023-06-14T16:50:45;4.22;;;2.92;;
6953;SDS011;3516;47.980;8.808;2023-06-14T16:53:12;3.40;;;3.10;;
6953;SDS011;3516;47.980;8.808;2023-06-14T16:55:40;2.55;;;2.42;;
6953;SDS011;3516;47.980;8.808;2023-06-14T16:58:07;3.00;;;2.58;;
6953;SDS011;3516;47.980;8.808;2023-06-14T17:00:34;3.20;;;3.00;;
6953;SDS011;3516;47.980;8.808;2023-06-14T17:03:00;3.38;;;3.08;;
6953;SDS011;3516;47.980;8.808;2023-06-14T17:05:29;3.58;;;3.28;;
6953;SDS011;3516;47.980;8.808;2023-06-14T17:07:56;5.82;;;3.20;;
6953;SDS011;3516;47.980;8.808;2023-06-14T17:10:23;3.30;;;3.00;;
6953;SDS011;3516;47.980;8.808;2023-06-14T17:12:51;3.50;;;2.60;;
6953;SDS011;3516;47.980;8.808;2023-06-14T17:15:17;2.72;;;2.53;;
6953;SDS011;3516;47.980;8.808;2023-06-14T17:17:44;3.17;;;2.75;;
6953;SDS011;3516;47.980;8.808;2023-06-14T17:20:11;2.72;;;2.55;;
6953;SDS011;3516;47.980;8.808;2023-06-14T17:22:37;2.80;;;2.60;;
6953;SDS011;3516;47.980;8.808;2023-06-14T17:25:06;4.47;;;2.92;;
6953;SDS011;3516;47.980;8.808;2023-06-14T17:27:33;3.88;;;2.80;;
6953;SDS011;3516;47.980;8.808;2023-06-14T17:30:01;2.97;;;2.78;;
6953;SDS011;3516;47.980;8.808;2023-06-14T17:32:28;2.75;;;2.63;;
6953;SDS011;3516;47.980;8.808;2023-06-14T17:34:54;3.28;;;3.08;;
6953;SDS011;3516;47.980;8.808;2023-06-14T17:37:21;2.95;;;2.75;;
6953;SDS011;3516;47.980;8.808;2023-06-14T17:39:48;4.72;;;3.28;;
6953;SDS011;3516;47.980;8.808;2023-06-14T17:42:15;3.33;;;3.13;;
6953;SDS011;3516;47.980;8.808;2023-06-14T17:44:41;4.45;;;3.03;;
6953;SDS011;3516;47.980;8.808;2023-06-14T17:47:10;4.00;;;2.90;;
6953;SDS011;3516;47.980;8.808;2023-06-14T17:49:37;3.03;;;2.78;;
6953;SDS011;3516;47.980;8.808;2023-06-14T17:52:04;2.55;;;2.45;;
6953;SDS011;3516;47.980;8.808;2023-06-14T17:54:31;5.07;;;3.00;;
6953;SDS011;3516;47.980;8.808;2023-06-14T17:56:58;3.17;;;2.72;;
6953;SDS011;3516;47.980;8.808;2023-06-14T17:59:24;4.72;;;3.33;;
6953;SDS011;3516;47.980;8.808;2023-06-14T18:01:51;2.70;;;2.60;;
6953;SDS011;3516;47.980;8.808;2023-06-14T18:04:19;3.10;;;2.90;;
6953;SDS011;3516;47.980;8.808;2023-06-14T18:06:46;3.53;;;3.17;;
6953;SDS011;3516;47.980;8.808;2023-06-14T18:09:12;3.45;;;3.25;;
6953;SDS011;3516;47.980;8.808;2023-06-14T18:11:39;3.42;;;2.53;;
6953;SDS011;3516;47.980;8.808;2023-06-14T18:14:06;2.88;;;2.70;;
6953;SDS011;3516;47.980;8.808;2023-06-14T18:16:33;2.53;;;2.42;;
6953;SDS011;3516;47.980;8.808;2023-06-14T18:19:00;3.00;;;2.80;;
6953;SDS011;3516;47.980;8.808;2023-06-14T18:21:28;3.28;;;2.97;;
6953;SDS011;3516;47.980;8.808;2023-06-14T18:23:54;2.38;;;2.28;;
6953;SDS011;3516;47.980;8.808;2023-06-14T18:26:23;3.08;;;2.50;;
6953;SDS011;3516;47.980;8.808;2023-06-14T18:28:51;5.63;;;2.95;;
6953;SDS011;3516;47.980;8.808;2023-06-14T18:31:18;2.55;;;2.42;;
6953;SDS011;3516;47.980;8.808;2023-06-14T18:33:44;2.72;;;2.53;;
6953;SDS011;3516;47.980;8.808;2023-06-14T18:36:11;2.47;;;2.38;;
6953;SDS011;3516;47.980;8.808;2023-06-14T18:38:39;2.35;;;2.25;;
6953;SDS011;3516;47.980;8.808;2023-06-14T18:41:06;3.13;;;2.75;;
6953;SDS011;3516;47.980;8.808;2023-06-14T18:43:32;2.80;;;2.60;;
6953;SDS011;3516;47.980;8.808;2023-06-14T18:45:59;4.00;;;2.78;;
6953;SDS011;3516;47.980;8.808;2023-06-14T18:48:26;2.53;;;2.42;;
6953;SDS011;3516;47.980;8.808;2023-06-14T18:50:53;3.47;;;2.78;;
6953;SDS011;3516;47.980;8.808;2023-06-14T18:53:19;2.63;;;2.53;;
6953;SDS011;3516;47.980;8.808;2023-06-14T18:55:47;2.60;;;2.40;;
6953;SDS011;3516;47.980;8.808;2023-06-14T18:58:15;3.03;;;2.83;;
6953;SDS011;3516;47.980;8.808;2023-06-14T19:00:42;4.82;;;3.20;;
6953;SDS011;3516;47.980;8.808;2023-06-14T19:03:09;3.03;;;2.78;;
6953;SDS011;3516;47.980;8.808;2023-06-14T19:05:35;3.30;;;3.10;;
6953;SDS011;3516;47.980;8.808;2023-06-14T19:08:02;3.17;;;2.97;;
6953;SDS011;3516;47.980;8.808;2023-06-14T19:10:29;2.75;;;2.65;;
6953;SDS011;3516;47.980;8.808;2023-06-14T19:12:57;2.85;;;2.75;;
6953;SDS011;3516;47.980;8.808;2023-06-14T19:15:24;2.50;;;2.40;;
6953;SDS011;3516;47.980;8.808;2023-06-14T19:17:55;2.47;;;2.38;;
6953;SDS011;3516;47.980;8.808;2023-06-14T19:20:22;2.40;;;2.30;;
6953;SDS011;3516;47.980;8.808;2023-06-14T19:22:52;2.53;;;2.42;;
6953;SDS011;3516;47.980;8.808;2023-06-14T19:25:19;2.13;;;2.05;;
6953;SDS011;3516;47.980;8.808;2023-06-14T19:27:46;2.30;;;2.20;;
6953;SDS011;3516;47.980;8.808;2023-06-14T19:30:14;1.70;;;1.70;;
6953;SDS011;3516;47.980;8.808;2023-06-14T19:32:41;1.98;;;1.90;;
6953;SDS011;3516;47.980;8.808;2023-06-14T19:35:08;2.80;;;2.13;;
6953;SDS011;3516;47.980;8.808;2023-06-14T19:37:36;2.63;;;2.00;;
6953;SDS011;3516;47.980;8.808;2023-06-14T19:40:03;2.20;;;2.10;;
6953;SDS011;3516;47.980;8.808;2023-06-14T19:42:30;2.45;;;2.35;;
6953;SDS011;3516;47.980;8.808;2023-06-14T19:44:57;2.40;;;2.20;;
6953;SDS011;3516;47.980;8.808;2023-06-14T19:47:25;2.28;;;2.17;;
6953;SDS011;3516;47.980;8.808;2023-06-14T19:49:52;2.20;;;2.10;;
6953;SDS011;3516;47.980;8.808;2023-06-14T19:52:19;2.20;;;2.10;;
6953;SDS011;3516;47.980;8.808;2023-06-14T19:54:48;5.50;;;2.60;;
6953;SDS011;3516;47.980;8.808;2023-06-14T19:57:15;2.10;;;2.00;;
6953;SDS011;3516;47.980;8.808;2023-06-14T19:59:42;3.80;;;2.00;;
6953;SDS011;3516;47.980;8.808;2023-06-14T20:02:10;1.67;;;1.67;;
6953;SDS011;3516;47.980;8.808;2023-06-14T20:04:39;2.08;;;1.98;;
6953;SDS011;3516;47.980;8.808;2023-06-14T20:07:06;2.35;;;1.80;;
6953;SDS011;3516;47.980;8.808;2023-06-14T20:09:33;1.85;;;1.75;;
6953;SDS011;3516;47.980;8.808;2023-06-14T20:12:00;2.00;;;1.90;;
6953;SDS011;3516;47.980;8.808;2023-06-14T20:14:27;1.75;;;1.75;;
6953;SDS011;3516;47.980;8.808;2023-06-14T20:16:55;2.30;;;2.20;;
6953;SDS011;3516;47.980;8.808;2023-06-14T20:19:22;2.08;;;2.00;;
6953;SDS011;3516;47.980;8.808;2023-06-14T20:21:51;2.97;;;1.95;;
6953;SDS011;3516;47.980;8.808;2023-06-14T20:24:18;2.50;;;2.30;;
6953;SDS011;3516;47.980;8.808;2023-06-14T20:26:45;2.30;;;2.20;;
6953;SDS011;3516;47.980;8.808;2023-06-14T20:29:12;2.00;;;1.90;;
6953;SDS011;3516;47.980;8.808;2023-06-14T20:31:39;2.45;;;2.35;;
6953;SDS011;3516;47.980;8.808;2023-06-14T20:34:06;2.40;;;2.20;;
6953;SDS011;3516;47.980;8.808;2023-06-14T20:36:33;3.22;;;2.03;;
6953;SDS011;3516;47.980;8.808;2023-06-14T20:39:02;2.20;;;2.10;;
6953;SDS011;3516;47.980;8.808;2023-06-14T20:41:29;2.10;;;2.00;;
6953;SDS011;3516;47.980;8.808;2023-06-14T20:43:56;2.00;;;1.90;;
6953;SDS011;3516;47.980;8.808;2023-06-14T20:46:26;1.67;;;1.67;;
6953;SDS011;3516;47.980;8.808;2023-06-14T20:48:53;1.92;;;1.83;;
6953;SDS011;3516;47.980;8.808;2023-06-14T20:51:20;1.95;;;1.85;;
6953;SDS011;3516;47.980;8.808;2023-06-14T20:53:47;2.17;;;2.00;;
6953;SDS011;3516;47.980;8.808;2023-06-14T20:56:16;1.98;;;1.88;;
6953;SDS011;3516;47.980;8.808;2023-06-14T20:58:43;2.53;;;2.30;;
6953;SDS011;3516;47.980;8.808;2023-06-14T21:01:10;1.70;;;1.70;;
6953;SDS011;3516;47.980;8.808;2023-06-14T21:03:38;2.35;;;2.25;;
6953;SDS011;3516;47.980;8.808;2023-06-14T21:06:05;2.30;;;2.20;;
6953;SDS011;3516;47.980;8.808;2023-06-14T21:08:34;2.58;;;2.47;;
6953;SDS011;3516;47.980;8.808;2023-06-14T21:11:02;2.45;;;2.35;;
6953;SDS011;3516;47.980;8.808;2023-06-14T21:13:30;2.72;;;2.58;;
6953;SDS011;3516;47.980;8.808;2023-06-14T21:15:57;2.75;;;2.65;;
6953;SDS011;3516;47.980;8.808;2023-06-14T21:18:25;3.10;;;2.20;;
6953;SDS011;3516;47.980;8.808;2023-06-14T21:20:52;2.53;;;2.42;;
6953;SDS011;3516;47.980;8.808;2023-06-14T21:23:19;2.35;;;2.25;;
6953;SDS011;3516;47.980;8.808;2023-06-14T21:25:46;2.75;;;2.55;;
6953;SDS011;3516;47.980;8.808;2023-06-14T21:28:13;2.13;;;2.03;;
